アロフィ の空港の天気 - METARとTAF

ニウエ国際空港 ( NIUE / IUE ) - ニウエ アロフィ
飛行場実況気象(Metar)
観測時間10/19 03:00 NUT (10/19 14:00 UTC)
風向・風速南東 5m/s
視程-
天気現象
-
気温22℃
湿度88%
気圧1017hPa
METARNIUE 191400Z AUTO 13009KT 090V160 // 22/20 Q1017
過去の天気等 Google飛行場航空写真 Wunderground天気予報

過去48時間のMETAR

飛行場予報(TAF)
データがありません